createdAt,value
2023-03-29T00:03:04.584Z,70.5
2023-03-29T00:15:04.401Z,68
2023-03-29T00:27:04.500Z,71.5
2023-03-29T00:39:04.474Z,68
2023-03-29T00:51:04.593Z,67.5
2023-03-29T01:03:04.669Z,65
2023-03-29T01:15:04.578Z,72
2023-03-29T01:27:04.536Z,75.5
2023-03-29T01:39:04.450Z,68.5
2023-03-29T01:51:04.832Z,69.5
2023-03-29T02:03:04.701Z,69.5
2023-03-29T02:15:04.585Z,67.5
2023-03-29T02:27:04.478Z,74
2023-03-29T02:39:04.665Z,74
2023-03-29T02:51:04.716Z,74.5
2023-03-29T03:03:04.691Z,71.5
2023-03-29T03:15:04.746Z,73.5
2023-03-29T03:27:04.693Z,65
2023-03-29T03:39:04.616Z,64.5
2023-03-29T03:51:04.763Z,65
2023-03-29T04:03:04.823Z,64.5
2023-03-29T04:15:04.742Z,72.5
2023-03-29T04:27:04.643Z,66.5
2023-03-29T04:39:04.634Z,68.5
2023-03-29T04:51:04.782Z,69
2023-03-29T05:03:04.800Z,66.5
2023-03-29T05:15:04.725Z,66.5
2023-03-29T05:27:04.873Z,73
2023-03-29T05:39:04.801Z,71
2023-03-29T05:51:04.892Z,72.5
2023-03-29T06:03:13.965Z,68
2023-03-29T06:15:04.949Z,74.5
2023-03-29T06:27:04.831Z,77.5
2023-03-29T06:39:04.816Z,74
2023-03-29T06:51:04.892Z,72
2023-03-29T07:03:04.953Z,65
2023-03-29T07:15:04.921Z,62
2023-03-29T07:27:05.081Z,66
2023-03-29T07:39:04.981Z,64.5
2023-03-29T07:51:05.167Z,63.5
2023-03-29T08:03:04.942Z,62
2023-03-29T08:15:04.895Z,59.5
2023-03-29T08:27:05.009Z,59
2023-03-29T08:39:05.000Z,60.5
2023-03-29T08:51:06.113Z,56.5
2023-03-29T09:03:04.971Z,56.5
2023-03-29T09:15:05.098Z,56
2023-03-29T09:27:05.022Z,57
2023-03-29T09:39:05.002Z,53.5
2023-03-29T09:51:05.139Z,56.5
2023-03-29T10:03:05.244Z,55.5
2023-03-29T10:15:05.403Z,52.5
2023-03-29T10:27:05.028Z,51
2023-03-29T10:39:05.870Z,54
2023-03-29T10:51:05.272Z,52.5
2023-03-29T11:03:05.217Z,56.5
2023-03-29T11:15:05.269Z,54
2023-03-29T11:27:05.331Z,52.5
2023-03-29T11:39:05.278Z,54.5
2023-03-29T11:51:05.141Z,50.5
2023-03-29T12:03:05.109Z,48.5
2023-03-29T12:15:05.276Z,48.5
2023-03-29T12:27:05.169Z,48.5
2023-03-29T12:39:05.168Z,48.5
2023-03-29T12:51:05.290Z,50
2023-03-29T13:03:05.311Z,48.5
2023-03-29T13:15:05.238Z,48.5
2023-03-29T13:27:05.182Z,50.5
2023-03-29T13:39:05.329Z,48.5
2023-03-29T13:51:05.292Z,48.5
2023-03-29T14:03:05.260Z,48.5
2023-03-29T14:15:05.458Z,49.5
2023-03-29T14:27:05.344Z,54.5
2023-03-29T14:39:05.317Z,51
2023-03-29T14:51:05.285Z,50.5
2023-03-29T15:03:05.554Z,54
2023-03-29T15:15:05.393Z,53.5
2023-03-29T15:27:05.992Z,56.5
2023-03-29T15:39:05.287Z,52
2023-03-29T15:51:06.864Z,48.5
2023-03-29T16:03:05.410Z,49
2023-03-29T16:15:05.469Z,48.5
2023-03-29T16:27:05.369Z,49
2023-03-29T16:39:05.351Z,48.5
2023-03-29T16:51:05.485Z,49.5
2023-03-29T17:03:05.493Z,50
2023-03-29T17:15:05.427Z,50
2023-03-29T17:27:05.907Z,48.5
2023-03-29T17:39:06.642Z,48.5
2023-03-29T17:51:05.486Z,50
2023-03-29T18:03:05.440Z,50
2023-03-29T18:15:05.699Z,50
2023-03-29T18:27:05.562Z,50
2023-03-29T18:39:05.552Z,50
2023-03-29T18:51:05.688Z,50
2023-03-29T19:03:05.941Z,50
2023-03-29T19:15:05.599Z,50
2023-03-29T19:27:05.534Z,50
2023-03-29T19:39:05.697Z,50
2023-03-29T19:51:05.652Z,50
2023-03-29T20:03:05.744Z,50
2023-03-29T20:15:05.588Z,50
2023-03-29T20:27:05.700Z,50
2023-03-29T20:39:05.679Z,50
2023-03-29T20:51:05.712Z,58.5
2023-03-29T21:03:05.996Z,78.5
2023-03-29T21:15:05.758Z,78
2023-03-29T21:27:05.721Z,79.5
2023-03-29T21:39:05.842Z,73.5
2023-03-29T21:51:05.989Z,76.5
2023-03-29T22:03:05.791Z,78.5
2023-03-29T22:15:05.803Z,84
2023-03-29T22:27:05.688Z,83.5
2023-03-29T22:39:05.870Z,85
2023-03-29T22:51:06.031Z,76
2023-03-29T23:03:05.824Z,76.5
2023-03-29T23:15:05.948Z,72.5
2023-03-29T23:27:05.889Z,79
2023-03-29T23:39:05.838Z,69
2023-03-29T23:51:06.027Z,67.5
